sensor_id;sensor_type;location;lat;lon;timestamp;P1;durP1;ratioP1;P2;durP2;ratioP2
6763;SDS011;47432;48.760;9.178;2023-04-25T00:00:20;6.70;;;2.20;;
6763;SDS011;47432;48.760;9.178;2023-04-25T00:02:46;7.20;;;1.90;;
6763;SDS011;47432;48.760;9.178;2023-04-25T00:05:12;8.13;;;3.60;;
6763;SDS011;47432;48.760;9.178;2023-04-25T00:07:40;6.93;;;2.20;;
6763;SDS011;47432;48.760;9.178;2023-04-25T00:10:07;7.70;;;2.57;;
6763;SDS011;47432;48.760;9.178;2023-04-25T00:12:35;6.23;;;2.10;;
6763;SDS011;47432;48.760;9.178;2023-04-25T00:15:02;7.10;;;2.27;;
6763;SDS011;47432;48.760;9.178;2023-04-25T00:17:28;6.63;;;2.17;;
6763;SDS011;47432;48.760;9.178;2023-04-25T00:19:54;7.77;;;2.40;;
6763;SDS011;47432;48.760;9.178;2023-04-25T00:22:20;6.53;;;2.13;;
6763;SDS011;47432;48.760;9.178;2023-04-25T00:24:46;6.47;;;2.07;;
6763;SDS011;47432;48.760;9.178;2023-04-25T00:27:12;7.50;;;2.20;;
6763;SDS011;47432;48.760;9.178;2023-04-25T00:29:39;7.60;;;2.33;;
6763;SDS011;47432;48.760;9.178;2023-04-25T00:32:04;6.90;;;2.10;;
6763;SDS011;47432;48.760;9.178;2023-04-25T00:34:30;8.37;;;2.83;;
6763;SDS011;47432;48.760;9.178;2023-04-25T00:36:56;7.43;;;2.63;;
6763;SDS011;47432;48.760;9.178;2023-04-25T00:39:22;6.87;;;2.43;;
6763;SDS011;47432;48.760;9.178;2023-04-25T00:41:47;6.60;;;2.37;;
6763;SDS011;47432;48.760;9.178;2023-04-25T00:44:13;6.23;;;1.93;;
6763;SDS011;47432;48.760;9.178;2023-04-25T00:46:43;6.70;;;2.67;;
6763;SDS011;47432;48.760;9.178;2023-04-25T00:49:09;6.73;;;2.53;;
6763;SDS011;47432;48.760;9.178;2023-04-25T00:51:40;8.33;;;2.67;;
6763;SDS011;47432;48.760;9.178;2023-04-25T00:54:06;6.93;;;2.60;;
6763;SDS011;47432;48.760;9.178;2023-04-25T00:56:34;8.40;;;3.27;;
6763;SDS011;47432;48.760;9.178;2023-04-25T00:59:00;6.53;;;2.57;;
6763;SDS011;47432;48.760;9.178;2023-04-25T01:01:26;9.37;;;3.03;;
6763;SDS011;47432;48.760;9.178;2023-04-25T01:03:53;10.10;;;2.80;;
6763;SDS011;47432;48.760;9.178;2023-04-25T01:06:19;7.10;;;2.50;;
6763;SDS011;47432;48.760;9.178;2023-04-25T01:08:44;7.17;;;2.70;;
6763;SDS011;47432;48.760;9.178;2023-04-25T01:11:10;7.60;;;2.60;;
6763;SDS011;47432;48.760;9.178;2023-04-25T01:13:36;7.50;;;3.00;;
6763;SDS011;47432;48.760;9.178;2023-04-25T01:16:02;8.97;;;3.60;;
6763;SDS011;47432;48.760;9.178;2023-04-25T01:18:28;7.80;;;3.07;;
6763;SDS011;47432;48.760;9.178;2023-04-25T01:20:54;9.40;;;2.83;;
6763;SDS011;47432;48.760;9.178;2023-04-25T01:23:21;7.70;;;3.20;;
6763;SDS011;47432;48.760;9.178;2023-04-25T01:25:49;7.53;;;2.60;;
6763;SDS011;47432;48.760;9.178;2023-04-25T01:28:18;7.87;;;2.80;;
6763;SDS011;47432;48.760;9.178;2023-04-25T01:30:44;6.80;;;2.37;;
6763;SDS011;47432;48.760;9.178;2023-04-25T01:33:10;6.90;;;2.80;;
6763;SDS011;47432;48.760;9.178;2023-04-25T01:35:37;9.40;;;3.03;;
6763;SDS011;47432;48.760;9.178;2023-04-25T01:38:03;7.33;;;3.13;;
6763;SDS011;47432;48.760;9.178;2023-04-25T01:40:29;8.13;;;3.10;;
6763;SDS011;47432;48.760;9.178;2023-04-25T01:42:56;7.30;;;2.87;;
6763;SDS011;47432;48.760;9.178;2023-04-25T01:45:22;7.80;;;3.10;;
6763;SDS011;47432;48.760;9.178;2023-04-25T01:47:48;7.80;;;2.90;;
6763;SDS011;47432;48.760;9.178;2023-04-25T01:50:15;9.40;;;3.50;;
6763;SDS011;47432;48.760;9.178;2023-04-25T01:52:44;7.63;;;2.83;;
6763;SDS011;47432;48.760;9.178;2023-04-25T01:55:10;7.67;;;3.20;;
6763;SDS011;47432;48.760;9.178;2023-04-25T01:57:36;8.33;;;3.07;;
6763;SDS011;47432;48.760;9.178;2023-04-25T02:00:03;8.47;;;3.30;;
6763;SDS011;47432;48.760;9.178;2023-04-25T02:02:31;8.60;;;3.00;;
6763;SDS011;47432;48.760;9.178;2023-04-25T02:04:57;7.60;;;3.07;;
6763;SDS011;47432;48.760;9.178;2023-04-25T02:07:23;10.53;;;3.77;;
6763;SDS011;47432;48.760;9.178;2023-04-25T02:09:48;8.53;;;3.87;;
6763;SDS011;47432;48.760;9.178;2023-04-25T02:12:14;10.47;;;3.77;;
6763;SDS011;47432;48.760;9.178;2023-04-25T02:14:40;7.50;;;3.13;;
6763;SDS011;47432;48.760;9.178;2023-04-25T02:17:06;8.27;;;3.23;;
6763;SDS011;47432;48.760;9.178;2023-04-25T02:19:32;7.80;;;3.20;;
6763;SDS011;47432;48.760;9.178;2023-04-25T02:21:58;7.43;;;2.93;;
6763;SDS011;47432;48.760;9.178;2023-04-25T02:24:23;7.30;;;2.90;;
6763;SDS011;47432;48.760;9.178;2023-04-25T02:26:49;8.00;;;3.40;;
6763;SDS011;47432;48.760;9.178;2023-04-25T02:29:15;7.73;;;2.60;;
6763;SDS011;47432;48.760;9.178;2023-04-25T02:31:41;9.60;;;3.93;;
6763;SDS011;47432;48.760;9.178;2023-04-25T02:34:07;7.00;;;2.20;;
6763;SDS011;47432;48.760;9.178;2023-04-25T02:36:33;8.00;;;2.47;;
6763;SDS011;47432;48.760;9.178;2023-04-25T02:39:00;8.87;;;3.17;;
6763;SDS011;47432;48.760;9.178;2023-04-25T02:41:27;6.43;;;2.17;;
6763;SDS011;47432;48.760;9.178;2023-04-25T02:43:56;7.60;;;2.80;;
6763;SDS011;47432;48.760;9.178;2023-04-25T02:46:22;7.00;;;2.43;;
6763;SDS011;47432;48.760;9.178;2023-04-25T02:48:47;6.67;;;2.40;;
6763;SDS011;47432;48.760;9.178;2023-04-25T02:51:13;7.33;;;2.50;;
6763;SDS011;47432;48.760;9.178;2023-04-25T02:53:41;7.03;;;2.87;;
6763;SDS011;47432;48.760;9.178;2023-04-25T02:56:07;7.60;;;2.73;;
6763;SDS011;47432;48.760;9.178;2023-04-25T02:58:32;6.77;;;2.60;;
6763;SDS011;47432;48.760;9.178;2023-04-25T03:00:58;7.60;;;2.70;;
6763;SDS011;47432;48.760;9.178;2023-04-25T03:03:24;7.67;;;2.73;;
6763;SDS011;47432;48.760;9.178;2023-04-25T03:05:50;6.90;;;2.70;;
6763;SDS011;47432;48.760;9.178;2023-04-25T03:08:16;6.80;;;2.27;;
6763;SDS011;47432;48.760;9.178;2023-04-25T03:10:43;8.67;;;2.77;;
6763;SDS011;47432;48.760;9.178;2023-04-25T03:13:09;7.70;;;3.00;;
6763;SDS011;47432;48.760;9.178;2023-04-25T03:15:35;8.90;;;2.90;;
6763;SDS011;47432;48.760;9.178;2023-04-25T03:18:01;8.20;;;2.87;;
6763;SDS011;47432;48.760;9.178;2023-04-25T03:20:27;8.63;;;2.70;;
6763;SDS011;47432;48.760;9.178;2023-04-25T03:22:53;8.10;;;2.87;;
6763;SDS011;47432;48.760;9.178;2023-04-25T03:25:19;8.80;;;2.90;;
6763;SDS011;47432;48.760;9.178;2023-04-25T03:27:45;9.43;;;2.87;;
6763;SDS011;47432;48.760;9.178;2023-04-25T03:30:10;10.20;;;4.03;;
6763;SDS011;47432;48.760;9.178;2023-04-25T03:32:39;10.97;;;3.37;;
6763;SDS011;47432;48.760;9.178;2023-04-25T03:35:04;9.10;;;2.70;;
6763;SDS011;47432;48.760;9.178;2023-04-25T03:37:30;9.20;;;2.87;;
6763;SDS011;47432;48.760;9.178;2023-04-25T03:39:56;8.00;;;2.50;;
6763;SDS011;47432;48.760;9.178;2023-04-25T03:42:21;14.00;;;3.27;;
6763;SDS011;47432;48.760;9.178;2023-04-25T03:44:48;9.77;;;3.00;;
6763;SDS011;47432;48.760;9.178;2023-04-25T03:47:14;7.80;;;2.70;;
6763;SDS011;47432;48.760;9.178;2023-04-25T03:49:40;7.97;;;2.40;;
6763;SDS011;47432;48.760;9.178;2023-04-25T03:52:06;8.27;;;3.03;;
6763;SDS011;47432;48.760;9.178;2023-04-25T03:54:32;9.20;;;2.93;;
6763;SDS011;47432;48.760;9.178;2023-04-25T03:56:57;9.13;;;2.97;;
6763;SDS011;47432;48.760;9.178;2023-04-25T03:59:23;10.43;;;3.03;;
6763;SDS011;47432;48.760;9.178;2023-04-25T04:01:50;9.90;;;3.30;;
6763;SDS011;47432;48.760;9.178;2023-04-25T04:04:15;11.20;;;3.27;;
6763;SDS011;47432;48.760;9.178;2023-04-25T04:06:41;9.23;;;3.10;;
6763;SDS011;47432;48.760;9.178;2023-04-25T04:09:07;9.53;;;3.53;;
6763;SDS011;47432;48.760;9.178;2023-04-25T04:11:36;9.70;;;3.20;;
6763;SDS011;47432;48.760;9.178;2023-04-25T04:14:04;9.30;;;3.10;;
6763;SDS011;47432;48.760;9.178;2023-04-25T04:16:33;8.77;;;3.07;;
6763;SDS011;47432;48.760;9.178;2023-04-25T04:18:58;10.37;;;3.17;;
6763;SDS011;47432;48.760;9.178;2023-04-25T04:21:24;9.70;;;3.20;;
6763;SDS011;47432;48.760;9.178;2023-04-25T04:23:52;10.53;;;3.33;;
6763;SDS011;47432;48.760;9.178;2023-04-25T04:26:19;9.77;;;3.33;;
6763;SDS011;47432;48.760;9.178;2023-04-25T04:28:48;9.23;;;3.23;;
6763;SDS011;47432;48.760;9.178;2023-04-25T04:31:19;11.93;;;3.70;;
6763;SDS011;47432;48.760;9.178;2023-04-25T04:33:49;10.97;;;3.10;;
6763;SDS011;47432;48.760;9.178;2023-04-25T04:36:15;10.17;;;3.73;;
6763;SDS011;47432;48.760;9.178;2023-04-25T04:38:44;13.07;;;4.00;;
6763;SDS011;47432;48.760;9.178;2023-04-25T04:41:10;11.10;;;3.27;;
6763;SDS011;47432;48.760;9.178;2023-04-25T04:43:36;10.00;;;4.03;;
6763;SDS011;47432;48.760;9.178;2023-04-25T04:46:02;9.03;;;3.03;;
6763;SDS011;47432;48.760;9.178;2023-04-25T04:48:29;11.40;;;3.60;;
6763;SDS011;47432;48.760;9.178;2023-04-25T04:50:58;9.50;;;3.10;;
6763;SDS011;47432;48.760;9.178;2023-04-25T04:53:24;9.37;;;3.43;;
6763;SDS011;47432;48.760;9.178;2023-04-25T04:55:50;10.90;;;3.13;;
6763;SDS011;47432;48.760;9.178;2023-04-25T04:58:15;11.10;;;4.23;;
6763;SDS011;47432;48.760;9.178;2023-04-25T05:00:44;9.70;;;3.27;;
6763;SDS011;47432;48.760;9.178;2023-04-25T05:03:10;9.80;;;3.30;;
6763;SDS011;47432;48.760;9.178;2023-04-25T05:05:36;13.17;;;3.63;;
6763;SDS011;47432;48.760;9.178;2023-04-25T05:08:04;8.90;;;3.03;;
6763;SDS011;47432;48.760;9.178;2023-04-25T05:10:33;10.07;;;4.00;;
6763;SDS011;47432;48.760;9.178;2023-04-25T05:13:01;10.40;;;3.33;;
6763;SDS011;47432;48.760;9.178;2023-04-25T05:15:27;9.17;;;3.33;;
6763;SDS011;47432;48.760;9.178;2023-04-25T05:17:53;9.87;;;3.63;;
6763;SDS011;47432;48.760;9.178;2023-04-25T05:20:19;11.17;;;3.80;;
6763;SDS011;47432;48.760;9.178;2023-04-25T05:22:45;9.53;;;3.53;;
6763;SDS011;47432;48.760;9.178;2023-04-25T05:25:13;12.00;;;3.43;;
6763;SDS011;47432;48.760;9.178;2023-04-25T05:27:38;8.60;;;3.40;;
6763;SDS011;47432;48.760;9.178;2023-04-25T05:30:07;8.20;;;3.20;;
6763;SDS011;47432;48.760;9.178;2023-04-25T05:32:35;9.07;;;3.67;;
6763;SDS011;47432;48.760;9.178;2023-04-25T05:35:03;8.33;;;3.23;;
6763;SDS011;47432;48.760;9.178;2023-04-25T05:37:31;9.00;;;3.63;;
6763;SDS011;47432;48.760;9.178;2023-04-25T05:39:57;8.27;;;3.20;;
6763;SDS011;47432;48.760;9.178;2023-04-25T05:42:23;7.63;;;3.33;;
6763;SDS011;47432;48.760;9.178;2023-04-25T05:44:49;7.47;;;3.17;;
6763;SDS011;47432;48.760;9.178;2023-04-25T05:47:14;7.90;;;3.30;;
6763;SDS011;47432;48.760;9.178;2023-04-25T05:49:40;8.20;;;3.20;;
6763;SDS011;47432;48.760;9.178;2023-04-25T05:52:06;8.53;;;3.47;;
6763;SDS011;47432;48.760;9.178;2023-04-25T05:54:34;10.13;;;3.50;;
6763;SDS011;47432;48.760;9.178;2023-04-25T05:56:59;7.50;;;3.00;;
6763;SDS011;47432;48.760;9.178;2023-04-25T05:59:27;8.07;;;2.93;;
6763;SDS011;47432;48.760;9.178;2023-04-25T06:01:53;8.87;;;3.67;;
6763;SDS011;47432;48.760;9.178;2023-04-25T06:04:22;11.00;;;3.93;;
6763;SDS011;47432;48.760;9.178;2023-04-25T06:06:48;7.83;;;3.13;;
6763;SDS011;47432;48.760;9.178;2023-04-25T06:09:13;8.43;;;3.50;;
6763;SDS011;47432;48.760;9.178;2023-04-25T06:11:39;7.50;;;3.20;;
6763;SDS011;47432;48.760;9.178;2023-04-25T06:14:05;12.00;;;2.90;;
6763;SDS011;47432;48.760;9.178;2023-04-25T06:16:32;7.93;;;3.13;;
6763;SDS011;47432;48.760;9.178;2023-04-25T06:18:58;7.50;;;3.03;;
6763;SDS011;47432;48.760;9.178;2023-04-25T06:21:23;7.43;;;2.90;;
6763;SDS011;47432;48.760;9.178;2023-04-25T06:23:49;8.83;;;3.13;;
6763;SDS011;47432;48.760;9.178;2023-04-25T06:26:15;8.53;;;3.70;;
6763;SDS011;47432;48.760;9.178;2023-04-25T06:28:40;7.50;;;3.30;;
6763;SDS011;47432;48.760;9.178;2023-04-25T06:31:06;10.03;;;2.73;;
6763;SDS011;47432;48.760;9.178;2023-04-25T06:33:32;8.90;;;3.20;;
6763;SDS011;47432;48.760;9.178;2023-04-25T06:35:57;7.10;;;2.80;;
6763;SDS011;47432;48.760;9.178;2023-04-25T06:38:23;8.60;;;3.50;;
6763;SDS011;47432;48.760;9.178;2023-04-25T06:40:49;9.57;;;3.83;;
6763;SDS011;47432;48.760;9.178;2023-04-25T06:43:14;8.30;;;3.10;;
6763;SDS011;47432;48.760;9.178;2023-04-25T06:45:40;7.57;;;3.13;;
6763;SDS011;47432;48.760;9.178;2023-04-25T06:48:07;7.90;;;3.07;;
6763;SDS011;47432;48.760;9.178;2023-04-25T06:50:35;8.70;;;3.07;;
6763;SDS011;47432;48.760;9.178;2023-04-25T06:53:01;9.13;;;3.87;;
6763;SDS011;47432;48.760;9.178;2023-04-25T06:55:27;7.00;;;2.17;;
6763;SDS011;47432;48.760;9.178;2023-04-25T06:57:52;8.63;;;3.37;;
6763;SDS011;47432;48.760;9.178;2023-04-25T07:00:18;10.37;;;3.30;;
6763;SDS011;47432;48.760;9.178;2023-04-25T07:02:47;7.87;;;2.80;;
6763;SDS011;47432;48.760;9.178;2023-04-25T07:05:13;8.17;;;2.83;;
6763;SDS011;47432;48.760;9.178;2023-04-25T07:07:38;7.80;;;2.97;;
6763;SDS011;47432;48.760;9.178;2023-04-25T07:10:05;8.10;;;3.50;;
6763;SDS011;47432;48.760;9.178;2023-04-25T07:12:31;7.40;;;2.83;;
6763;SDS011;47432;48.760;9.178;2023-04-25T07:14:57;8.47;;;3.03;;
6763;SDS011;47432;48.760;9.178;2023-04-25T07:17:24;7.20;;;3.30;;
6763;SDS011;47432;48.760;9.178;2023-04-25T07:19:49;8.37;;;3.13;;
6763;SDS011;47432;48.760;9.178;2023-04-25T07:22:15;8.73;;;4.30;;
6763;SDS011;47432;48.760;9.178;2023-04-25T07:24:41;10.50;;;4.07;;
6763;SDS011;47432;48.760;9.178;2023-04-25T07:27:06;7.93;;;3.33;;
6763;SDS011;47432;48.760;9.178;2023-04-25T07:29:34;8.50;;;3.87;;
6763;SDS011;47432;48.760;9.178;2023-04-25T07:32:02;9.20;;;3.80;;
6763;SDS011;47432;48.760;9.178;2023-04-25T07:34:28;10.10;;;3.90;;
6763;SDS011;47432;48.760;9.178;2023-04-25T07:36:55;8.60;;;4.10;;
6763;SDS011;47432;48.760;9.178;2023-04-25T07:39:21;8.60;;;3.53;;
6763;SDS011;47432;48.760;9.178;2023-04-25T07:41:48;8.73;;;4.10;;
6763;SDS011;47432;48.760;9.178;2023-04-25T07:44:14;8.27;;;4.30;;
6763;SDS011;47432;48.760;9.178;2023-04-25T07:46:39;9.00;;;3.70;;
6763;SDS011;47432;48.760;9.178;2023-04-25T07:49:05;9.10;;;4.13;;
6763;SDS011;47432;48.760;9.178;2023-04-25T07:51:31;8.20;;;3.77;;
6763;SDS011;47432;48.760;9.178;2023-04-25T07:53:57;9.47;;;3.70;;
6763;SDS011;47432;48.760;9.178;2023-04-25T07:56:24;10.53;;;4.50;;
6763;SDS011;47432;48.760;9.178;2023-04-25T07:58:50;9.40;;;3.33;;
6763;SDS011;47432;48.760;9.178;2023-04-25T08:01:16;9.20;;;4.10;;
6763;SDS011;47432;48.760;9.178;2023-04-25T08:03:42;9.90;;;4.50;;
6763;SDS011;47432;48.760;9.178;2023-04-25T08:06:07;10.40;;;4.70;;
6763;SDS011;47432;48.760;9.178;2023-04-25T08:08:34;10.40;;;4.30;;
6763;SDS011;47432;48.760;9.178;2023-04-25T08:11:00;11.53;;;4.60;;
6763;SDS011;47432;48.760;9.178;2023-04-25T08:13:25;12.80;;;4.87;;
6763;SDS011;47432;48.760;9.178;2023-04-25T08:15:51;12.80;;;5.10;;
6763;SDS011;47432;48.760;9.178;2023-04-25T08:18:17;11.10;;;4.67;;
6763;SDS011;47432;48.760;9.178;2023-04-25T08:20:43;10.63;;;3.93;;
6763;SDS011;47432;48.760;9.178;2023-04-25T08:23:10;9.77;;;3.73;;
6763;SDS011;47432;48.760;9.178;2023-04-25T08:25:35;11.60;;;4.03;;
6763;SDS011;47432;48.760;9.178;2023-04-25T08:28:01;11.47;;;4.50;;
6763;SDS011;47432;48.760;9.178;2023-04-25T08:30:28;11.40;;;4.40;;
6763;SDS011;47432;48.760;9.178;2023-04-25T08:32:54;9.97;;;3.77;;
6763;SDS011;47432;48.760;9.178;2023-04-25T08:35:20;11.63;;;4.70;;
6763;SDS011;47432;48.760;9.178;2023-04-25T08:37:46;11.10;;;4.80;;
6763;SDS011;47432;48.760;9.178;2023-04-25T08:40:14;13.07;;;4.63;;
6763;SDS011;47432;48.760;9.178;2023-04-25T08:42:43;10.80;;;4.57;;
6763;SDS011;47432;48.760;9.178;2023-04-25T08:45:10;10.80;;;4.43;;
6763;SDS011;47432;48.760;9.178;2023-04-25T08:47:37;10.70;;;4.47;;
6763;SDS011;47432;48.760;9.178;2023-04-25T08:50:04;11.33;;;3.63;;
6763;SDS011;47432;48.760;9.178;2023-04-25T08:52:34;14.47;;;5.27;;
6763;SDS011;47432;48.760;9.178;2023-04-25T08:55:03;10.20;;;4.43;;
6763;SDS011;47432;48.760;9.178;2023-04-25T08:57:33;11.00;;;3.90;;
6763;SDS011;47432;48.760;9.178;2023-04-25T08:59:59;10.50;;;3.73;;
6763;SDS011;47432;48.760;9.178;2023-04-25T09:02:26;10.70;;;3.60;;
6763;SDS011;47432;48.760;9.178;2023-04-25T09:04:53;11.00;;;4.47;;
6763;SDS011;47432;48.760;9.178;2023-04-25T09:07:21;11.37;;;4.83;;
6763;SDS011;47432;48.760;9.178;2023-04-25T09:09:47;10.43;;;4.43;;
6763;SDS011;47432;48.760;9.178;2023-04-25T09:12:12;9.87;;;4.10;;
6763;SDS011;47432;48.760;9.178;2023-04-25T09:14:38;12.00;;;5.03;;
6763;SDS011;47432;48.760;9.178;2023-04-25T09:17:04;12.30;;;4.37;;
6763;SDS011;47432;48.760;9.178;2023-04-25T09:19:33;10.43;;;4.67;;
6763;SDS011;47432;48.760;9.178;2023-04-25T09:22:01;11.33;;;4.73;;
6763;SDS011;47432;48.760;9.178;2023-04-25T09:24:39;10.63;;;4.40;;
6763;SDS011;47432;48.760;9.178;2023-04-25T09:27:09;10.70;;;4.80;;
6763;SDS011;47432;48.760;9.178;2023-04-25T09:29:39;11.27;;;5.40;;
6763;SDS011;47432;48.760;9.178;2023-04-25T09:34:49;14.83;;;4.60;;
6763;SDS011;47432;48.760;9.178;2023-04-25T09:37:29;12.37;;;4.90;;
6763;SDS011;47432;48.760;9.178;2023-04-25T09:39:56;11.43;;;5.13;;
6763;SDS011;47432;48.760;9.178;2023-04-25T09:42:26;11.80;;;4.93;;
6763;SDS011;47432;48.760;9.178;2023-04-25T09:44:54;11.30;;;5.07;;
6763;SDS011;47432;48.760;9.178;2023-04-25T09:47:22;12.40;;;4.83;;
6763;SDS011;47432;48.760;9.178;2023-04-25T09:49:50;10.07;;;3.80;;
6763;SDS011;47432;48.760;9.178;2023-04-25T09:52:18;8.70;;;3.20;;
6763;SDS011;47432;48.760;9.178;2023-04-25T09:54:47;10.20;;;3.50;;
6763;SDS011;47432;48.760;9.178;2023-04-25T09:59:49;9.93;;;3.40;;
6763;SDS011;47432;48.760;9.178;2023-04-25T10:02:28;10.60;;;4.23;;
6763;SDS011;47432;48.760;9.178;2023-04-25T10:04:54;12.33;;;4.03;;
6763;SDS011;47432;48.760;9.178;2023-04-25T10:07:29;12.10;;;4.00;;
6763;SDS011;47432;48.760;9.178;2023-04-25T10:10:05;9.70;;;3.90;;
6763;SDS011;47432;48.760;9.178;2023-04-25T10:12:32;8.50;;;2.47;;
6763;SDS011;47432;48.760;9.178;2023-04-25T10:14:59;8.17;;;2.27;;
6763;SDS011;47432;48.760;9.178;2023-04-25T10:17:28;8.27;;;2.50;;
6763;SDS011;47432;48.760;9.178;2023-04-25T10:19:54;8.60;;;2.50;;
6763;SDS011;47432;48.760;9.178;2023-04-25T10:22:23;7.60;;;2.30;;
6763;SDS011;47432;48.760;9.178;2023-04-25T10:24:57;8.57;;;2.33;;
6763;SDS011;47432;48.760;9.178;2023-04-25T10:27:24;8.50;;;2.20;;
6763;SDS011;47432;48.760;9.178;2023-04-25T10:30:02;7.90;;;2.30;;
6763;SDS011;47432;48.760;9.178;2023-04-25T10:32:39;8.17;;;2.20;;
6763;SDS011;47432;48.760;9.178;2023-04-25T10:35:14;8.50;;;2.23;;
6763;SDS011;47432;48.760;9.178;2023-04-25T10:37:57;8.10;;;2.10;;
6763;SDS011;47432;48.760;9.178;2023-04-25T10:40:27;8.30;;;2.23;;
6763;SDS011;47432;48.760;9.178;2023-04-25T10:42:53;9.07;;;1.70;;
6763;SDS011;47432;48.760;9.178;2023-04-25T10:45:20;7.13;;;1.40;;
6763;SDS011;47432;48.760;9.178;2023-04-25T10:47:49;7.60;;;1.90;;
6763;SDS011;47432;48.760;9.178;2023-04-25T10:50:15;7.63;;;1.80;;
6763;SDS011;47432;48.760;9.178;2023-04-25T10:52:41;9.20;;;2.07;;
6763;SDS011;47432;48.760;9.178;2023-04-25T10:55:09;8.03;;;1.77;;
6763;SDS011;47432;48.760;9.178;2023-04-25T11:00:19;9.30;;;3.47;;
6763;SDS011;47432;48.760;9.178;2023-04-25T11:02:52;11.80;;;3.70;;
6763;SDS011;47432;48.760;9.178;2023-04-25T11:05:32;11.30;;;4.17;;
6763;SDS011;47432;48.760;9.178;2023-04-25T11:08:03;10.60;;;4.07;;
6763;SDS011;47432;48.760;9.178;2023-04-25T11:10:36;10.10;;;3.53;;
6763;SDS011;47432;48.760;9.178;2023-04-25T11:13:02;11.57;;;4.40;;
6763;SDS011;47432;48.760;9.178;2023-04-25T11:15:28;10.40;;;3.57;;
6763;SDS011;47432;48.760;9.178;2023-04-25T11:17:54;10.23;;;3.53;;
6763;SDS011;47432;48.760;9.178;2023-04-25T11:20:21;11.20;;;4.10;;
6763;SDS011;47432;48.760;9.178;2023-04-25T11:22:50;9.77;;;3.27;;
6763;SDS011;47432;48.760;9.178;2023-04-25T11:25:16;10.27;;;3.47;;
6763;SDS011;47432;48.760;9.178;2023-04-25T11:27:52;11.30;;;4.40;;
6763;SDS011;47432;48.760;9.178;2023-04-25T11:30:21;9.20;;;2.93;;
6763;SDS011;47432;48.760;9.178;2023-04-25T11:32:48;9.20;;;3.20;;
6763;SDS011;47432;48.760;9.178;2023-04-25T11:35:15;10.20;;;3.20;;
6763;SDS011;47432;48.760;9.178;2023-04-25T11:37:41;7.97;;;2.13;;
6763;SDS011;47432;48.760;9.178;2023-04-25T11:40:09;8.40;;;2.17;;
6763;SDS011;47432;48.760;9.178;2023-04-25T11:42:37;8.30;;;2.50;;
6763;SDS011;47432;48.760;9.178;2023-04-25T11:45:04;8.63;;;2.20;;
6763;SDS011;47432;48.760;9.178;2023-04-25T11:47:31;7.80;;;2.23;;
6763;SDS011;47432;48.760;9.178;2023-04-25T11:49:58;8.63;;;3.37;;
6763;SDS011;47432;48.760;9.178;2023-04-25T11:55:21;8.37;;;2.77;;
6763;SDS011;47432;48.760;9.178;2023-04-25T11:57:48;7.07;;;2.80;;
6763;SDS011;47432;48.760;9.178;2023-04-25T12:00:18;9.00;;;3.30;;
6763;SDS011;47432;48.760;9.178;2023-04-25T12:02:46;8.60;;;3.30;;
6763;SDS011;47432;48.760;9.178;2023-04-25T12:05:16;8.60;;;3.30;;
6763;SDS011;47432;48.760;9.178;2023-04-25T12:07:42;9.00;;;3.60;;
6763;SDS011;47432;48.760;9.178;2023-04-25T12:10:10;11.27;;;4.40;;
6763;SDS011;47432;48.760;9.178;2023-04-25T12:12:38;9.80;;;4.70;;
6763;SDS011;47432;48.760;9.178;2023-04-25T12:15:17;8.40;;;3.83;;
6763;SDS011;47432;48.760;9.178;2023-04-25T12:17:50;9.20;;;4.20;;
6763;SDS011;47432;48.760;9.178;2023-04-25T12:20:18;8.77;;;4.40;;
6763;SDS011;47432;48.760;9.178;2023-04-25T12:22:49;9.40;;;4.30;;
6763;SDS011;47432;48.760;9.178;2023-04-25T12:31:02;9.40;;;3.60;;
6763;SDS011;47432;48.760;9.178;2023-04-25T12:33:32;8.77;;;3.77;;
6763;SDS011;47432;48.760;9.178;2023-04-25T12:36:00;9.00;;;4.30;;
6763;SDS011;47432;48.760;9.178;2023-04-25T12:38:37;10.70;;;4.10;;
6763;SDS011;47432;48.760;9.178;2023-04-25T12:41:06;13.40;;;3.63;;
6763;SDS011;47432;48.760;9.178;2023-04-25T12:43:35;9.37;;;4.60;;
6763;SDS011;47432;48.760;9.178;2023-04-25T12:46:02;10.03;;;4.37;;
6763;SDS011;47432;48.760;9.178;2023-04-25T12:48:28;10.67;;;5.33;;
6763;SDS011;47432;48.760;9.178;2023-04-25T12:50:56;11.90;;;5.10;;
6763;SDS011;47432;48.760;9.178;2023-04-25T12:53:23;10.67;;;4.60;;
6763;SDS011;47432;48.760;9.178;2023-04-25T12:55:49;10.53;;;4.07;;
6763;SDS011;47432;48.760;9.178;2023-04-25T12:58:16;10.93;;;4.93;;
6763;SDS011;47432;48.760;9.178;2023-04-25T13:00:43;9.53;;;4.40;;
6763;SDS011;47432;48.760;9.178;2023-04-25T13:03:09;10.77;;;3.90;;
6763;SDS011;47432;48.760;9.178;2023-04-25T13:05:38;9.90;;;4.57;;
6763;SDS011;47432;48.760;9.178;2023-04-25T13:08:07;12.60;;;3.97;;
6763;SDS011;47432;48.760;9.178;2023-04-25T13:10:33;9.97;;;4.77;;
6763;SDS011;47432;48.760;9.178;2023-04-25T13:13:01;9.13;;;4.03;;
6763;SDS011;47432;48.760;9.178;2023-04-25T13:15:27;10.60;;;4.60;;
6763;SDS011;47432;48.760;9.178;2023-04-25T13:17:53;10.30;;;5.20;;
6763;SDS011;47432;48.760;9.178;2023-04-25T13:20:18;9.30;;;4.50;;
6763;SDS011;47432;48.760;9.178;2023-04-25T13:22:47;9.17;;;4.93;;
6763;SDS011;47432;48.760;9.178;2023-04-25T13:25:13;8.90;;;4.07;;
6763;SDS011;47432;48.760;9.178;2023-04-25T13:27:39;9.70;;;4.40;;
6763;SDS011;47432;48.760;9.178;2023-04-25T13:30:05;12.63;;;5.77;;
6763;SDS011;47432;48.760;9.178;2023-04-25T13:32:36;10.33;;;4.70;;
6763;SDS011;47432;48.760;9.178;2023-04-25T13:35:06;10.80;;;5.40;;
6763;SDS011;47432;48.760;9.178;2023-04-25T13:37:35;12.93;;;5.00;;
6763;SDS011;47432;48.760;9.178;2023-04-25T13:40:02;10.20;;;4.87;;
6763;SDS011;47432;48.760;9.178;2023-04-25T13:42:33;9.80;;;5.30;;
6763;SDS011;47432;48.760;9.178;2023-04-25T13:44:58;10.77;;;5.70;;
6763;SDS011;47432;48.760;9.178;2023-04-25T13:47:27;10.50;;;5.40;;
6763;SDS011;47432;48.760;9.178;2023-04-25T13:49:53;10.37;;;5.30;;
6763;SDS011;47432;48.760;9.178;2023-04-25T13:52:19;13.20;;;5.73;;
6763;SDS011;47432;48.760;9.178;2023-04-25T13:54:45;11.90;;;5.17;;
6763;SDS011;47432;48.760;9.178;2023-04-25T13:57:11;12.50;;;6.10;;
6763;SDS011;47432;48.760;9.178;2023-04-25T13:59:39;12.47;;;6.23;;
6763;SDS011;47432;48.760;9.178;2023-04-25T14:02:06;11.20;;;5.60;;
6763;SDS011;47432;48.760;9.178;2023-04-25T14:04:32;12.90;;;6.10;;
6763;SDS011;47432;48.760;9.178;2023-04-25T14:06:58;12.90;;;6.70;;
6763;SDS011;47432;48.760;9.178;2023-04-25T14:09:24;15.17;;;6.57;;
6763;SDS011;47432;48.760;9.178;2023-04-25T14:11:52;12.63;;;6.33;;
6763;SDS011;47432;48.760;9.178;2023-04-25T14:14:21;13.60;;;7.27;;
6763;SDS011;47432;48.760;9.178;2023-04-25T14:16:48;11.60;;;6.63;;
6763;SDS011;47432;48.760;9.178;2023-04-25T14:19:15;10.27;;;6.10;;
6763;SDS011;47432;48.760;9.178;2023-04-25T14:21:44;10.60;;;6.00;;
6763;SDS011;47432;48.760;9.178;2023-04-25T14:24:11;10.77;;;5.67;;
6763;SDS011;47432;48.760;9.178;2023-04-25T14:26:39;10.53;;;5.60;;
6763;SDS011;47432;48.760;9.178;2023-04-25T14:29:08;10.77;;;6.17;;
6763;SDS011;47432;48.760;9.178;2023-04-25T14:31:36;12.73;;;6.37;;
6763;SDS011;47432;48.760;9.178;2023-04-25T14:34:05;11.23;;;4.90;;
6763;SDS011;47432;48.760;9.178;2023-04-25T14:36:31;10.60;;;4.90;;
6763;SDS011;47432;48.760;9.178;2023-04-25T14:38:58;10.87;;;4.70;;
6763;SDS011;47432;48.760;9.178;2023-04-25T14:41:24;9.57;;;4.90;;
6763;SDS011;47432;48.760;9.178;2023-04-25T14:43:51;10.40;;;4.30;;
6763;SDS011;47432;48.760;9.178;2023-04-25T14:46:21;11.30;;;4.40;;
6763;SDS011;47432;48.760;9.178;2023-04-25T14:48:48;10.20;;;4.80;;
6763;SDS011;47432;48.760;9.178;2023-04-25T14:51:14;12.10;;;4.47;;
6763;SDS011;47432;48.760;9.178;2023-04-25T14:53:42;9.57;;;4.90;;
6763;SDS011;47432;48.760;9.178;2023-04-25T14:56:08;9.63;;;4.50;;
6763;SDS011;47432;48.760;9.178;2023-04-25T14:58:34;10.60;;;4.90;;
6763;SDS011;47432;48.760;9.178;2023-04-25T15:01:00;10.60;;;4.67;;
6763;SDS011;47432;48.760;9.178;2023-04-25T15:03:26;10.17;;;4.13;;
6763;SDS011;47432;48.760;9.178;2023-04-25T15:05:52;10.70;;;4.33;;
6763;SDS011;47432;48.760;9.178;2023-04-25T15:08:19;9.37;;;4.10;;
6763;SDS011;47432;48.760;9.178;2023-04-25T15:10:48;9.20;;;4.57;;